Time;durP1;ratioP1;P1;durP2;ratioP2;P2;SDS_P1;SDS_P2;PMS_P1;PMS_P2;Temp;Humidity;BMP_temperature;BMP_pressure;BME280_temperature;BME280_humidity;BME280_pressure;Samples;Min_cycle;Max_cycle;Signal;HPM_P1;HPM_P2
2022/01/14 00:01:29;;;;;;;35.15;16.63;;;5.70;99.90;;;;;;5047079;28;20558;-59
2022/01/14 00:03:55;;;;;;;34.53;16.05;;;5.70;99.90;;;;;;5033937;28;20053;-60
2022/01/14 00:06:20;;;;;;;37.72;15.57;;;5.70;99.90;;;;;;5052502;28;20498;-60
2022/01/14 00:08:46;;;;;;;40.80;15.02;;;5.70;99.90;;;;;;5031040;28;20102;-60
2022/01/14 00:11:17;;;;;;;38.72;16.35;;;5.70;99.90;;;;;;5051613;28;20068;-59
2022/01/14 00:16:12;;;;;;;37.85;15.48;;;5.70;99.90;;;;;;5031932;28;20883;-60
2022/01/14 00:18:37;;;;;;;32.65;13.45;;;5.70;99.90;;;;;;5035040;28;20048;-59
2022/01/14 00:21:03;;;;;;;30.95;13.88;;;5.70;99.90;;;;;;5050797;28;20094;-60
2022/01/14 00:23:34;;;;;;;36.97;14.05;;;5.70;99.90;;;;;;5021523;28;20048;-60
2022/01/14 00:31:43;;;;;;;38.05;14.73;;;5.80;99.90;;;;;;5046134;28;20296;-60
2022/01/14 00:34:13;;;;;;;32.67;15.45;;;5.80;99.90;;;;;;5050624;28;20045;-60
2022/01/14 00:36:40;;;;;;;44.78;16.08;;;5.80;99.90;;;;;;5035522;28;20376;-60
2022/01/14 00:39:09;;;;;;;33.60;16.33;;;5.80;99.90;;;;;;5050794;28;20044;-58
2022/01/14 00:41:36;;;;;;;30.27;15.60;;;5.70;99.90;;;;;;5036097;28;20059;-59
2022/01/14 00:44:10;;;;;;;41.60;16.27;;;5.70;99.90;;;;;;5049790;28;20045;-60
2022/01/14 00:46:41;;;;;;;33.35;15.32;;;5.70;99.90;;;;;;5049539;28;20088;-60
2022/01/14 00:49:07;;;;;;;32.20;14.98;;;5.70;99.90;;;;;;5052304;28;20040;-60
2022/01/14 00:51:34;;;;;;;32.38;15.10;;;5.60;99.90;;;;;;5048822;28;20426;-59
2022/01/14 00:54:00;;;;;;;39.47;15.18;;;5.60;99.90;;;;;;5050060;28;20052;-60
2022/01/14 00:56:32;;;;;;;36.08;15.55;;;5.70;99.90;;;;;;5036467;28;20052;-60
2022/01/14 00:59:17;;;;;;;37.97;15.25;;;5.70;99.90;;;;;;5033663;28;20505;-60
2022/01/14 01:01:55;;;;;;;36.92;15.73;;;5.60;99.90;;;;;;5045676;28;20049;-59
2022/01/14 01:04:29;;;;;;;41.45;15.77;;;5.60;99.90;;;;;;5049626;28;20048;-59
2022/01/14 01:06:56;;;;;;;41.55;16.15;;;5.60;99.90;;;;;;5038371;28;20069;-60
2022/01/14 01:09:24;;;;;;;40.25;15.45;;;5.50;99.90;;;;;;5051433;28;20048;-60
2022/01/14 01:12:08;;;;;;;35.60;15.70;;;5.50;99.90;;;;;;5045887;28;20071;-60
2022/01/14 01:15:20;;;;;;;;;;;5.50;99.90;;;;;;5034053;28;20082;-58
2022/01/14 01:17:20;;;;;;;38.47;15.63;;;5.50;99.90;;;;;;5047578;28;19928;-60
2022/01/14 01:19:46;;;;;;;37.53;15.65;;;5.60;99.90;;;;;;5052841;28;20453;-60
2022/01/14 01:22:12;;;;;;;30.92;15.63;;;5.50;99.90;;;;;;5048027;28;20060;-60
2022/01/14 01:24:38;;;;;;;40.40;16.50;;;5.60;99.90;;;;;;5049906;28;20391;-60
2022/01/14 01:27:07;;;;;;;35.25;16.17;;;5.50;99.90;;;;;;5021118;28;20518;-59
2022/01/14 01:32:03;;;;;;;36.33;15.55;;;5.60;99.90;;;;;;5049925;28;20551;-57
2022/01/14 01:34:29;;;;;;;38.40;16.00;;;5.60;99.90;;;;;;5050045;28;20045;-59
2022/01/14 01:36:56;;;;;;;35.90;15.85;;;5.60;99.90;;;;;;5047482;28;20056;-60
2022/01/14 01:39:26;;;;;;;40.08;15.88;;;5.60;99.90;;;;;;5038490;28;20056;-60
2022/01/14 01:41:54;;;;;;;37.03;15.98;;;5.60;99.90;;;;;;5049997;28;20514;-59
2022/01/14 01:44:22;;;;;;;37.80;16.52;;;5.60;99.90;;;;;;5051862;28;20052;-60
2022/01/14 01:46:49;;;;;;;34.83;15.93;;;5.60;99.90;;;;;;5051292;28;20135;-59
2022/01/14 01:49:18;;;;;;;31.63;15.27;;;5.60;99.90;;;;;;5049646;28;20048;-60
2022/01/14 01:51:45;;;;;;;39.78;17.20;;;5.70;99.90;;;;;;5023955;28;20495;-60
2022/01/14 01:54:12;;;;;;;39.85;16.48;;;5.60;99.90;;;;;;5048799;28;20040;-60
2022/01/14 01:56:38;;;;;;;41.80;16.85;;;5.60;99.90;;;;;;5048520;28;20045;-60
2022/01/14 01:59:04;;;;;;;42.20;17.25;;;5.70;99.90;;;;;;5048828;28;20037;-60
2022/01/14 02:01:31;;;;;;;38.22;17.42;;;5.70;99.90;;;;;;5047653;28;20072;-60
2022/01/14 02:03:57;;;;;;;40.28;17.30;;;5.60;99.90;;;;;;5049862;28;20612;-60
2022/01/14 02:06:23;;;;;;;33.42;17.05;;;5.60;99.90;;;;;;5048954;28;20049;-60
2022/01/14 02:08:50;;;;;;;41.55;17.25;;;5.70;99.90;;;;;;5052486;28;20044;-59
2022/01/14 02:11:17;;;;;;;42.15;17.27;;;5.70;99.90;;;;;;5031167;28;20169;-60
2022/01/14 02:13:43;;;;;;;39.42;17.10;;;5.70;99.90;;;;;;5048723;28;20087;-60
2022/01/14 02:24:33;;;;;;;36.97;18.42;;;5.70;99.90;;;;;;5023146;28;20076;-60
2022/01/14 02:27:00;;;;;;;42.53;18.20;;;5.70;99.90;;;;;;5050655;28;20037;-59
2022/01/14 02:29:26;;;;;;;46.00;18.33;;;5.70;99.90;;;;;;5031277;28;20490;-59
2022/01/14 02:31:53;;;;;;;34.20;18.10;;;5.70;99.90;;;;;;5048568;28;20060;-59
2022/01/14 02:34:19;;;;;;;40.45;18.42;;;5.80;99.90;;;;;;5037947;28;20058;-59
2022/01/14 02:36:47;;;;;;;38.80;19.15;;;5.80;99.90;;;;;;5049171;28;20037;-59
2022/01/14 02:39:15;;;;;;;40.05;19.15;;;5.80;99.90;;;;;;5046043;28;20048;-59
2022/01/14 02:41:43;;;;;;;46.47;19.65;;;5.80;99.90;;;;;;5045378;28;20045;-60
2022/01/14 02:44:12;;;;;;;41.22;19.27;;;5.80;99.90;;;;;;5047985;28;20060;-59
2022/01/14 02:46:49;;;;;;;37.95;18.90;;;5.80;99.90;;;;;;5032274;28;20052;-60
2022/01/14 02:49:15;;;;;;;36.22;19.88;;;5.80;99.90;;;;;;5046088;28;20049;-59
2022/01/14 02:51:41;;;;;;;39.23;19.70;;;5.70;99.90;;;;;;5049849;28;20079;-60
2022/01/14 02:54:13;;;;;;;39.50;19.15;;;5.80;99.90;;;;;;5049400;28;20048;-59
2022/01/14 02:56:42;;;;;;;44.28;20.38;;;5.80;99.90;;;;;;5049313;28;20071;-60
2022/01/14 02:59:10;;;;;;;41.42;20.13;;;5.80;99.90;;;;;;5047476;28;20040;-59
2022/01/14 03:01:37;;;;;;;42.90;20.17;;;5.80;99.90;;;;;;5032129;28;20503;-59
2022/01/14 03:04:04;;;;;;;41.80;19.40;;;5.80;99.90;;;;;;5046220;28;20089;-58
2022/01/14 03:06:31;;;;;;;39.42;19.80;;;5.80;99.90;;;;;;5048564;28;20038;-59
2022/01/14 03:08:58;;;;;;;35.70;19.55;;;5.80;99.90;;;;;;5048230;28;20107;-60
2022/01/14 03:11:30;;;;;;;44.88;20.02;;;5.80;99.90;;;;;;5032411;28;20033;-59
2022/01/14 03:13:56;;;;;;;42.10;19.48;;;5.90;99.90;;;;;;5050088;28;20478;-60
2022/01/14 03:16:24;;;;;;;41.90;19.25;;;5.90;99.90;;;;;;5031880;28;20059;-59
2022/01/14 03:18:53;;;;;;;51.58;20.10;;;5.90;99.90;;;;;;5048349;28;20032;-59
2022/01/14 03:21:28;;;;;;;43.83;19.58;;;5.90;99.90;;;;;;5046635;28;20052;-58
2022/01/14 03:25:47;;;;;;;42.88;20.23;;;5.90;99.90;;;;;;5049404;28;20077;-59
2022/01/14 03:26:45;;;;;;;43.35;19.55;;;5.90;99.90;;;;;;5028819;28;20056;-60
2022/01/14 03:29:15;;;;;;;37.85;19.95;;;5.90;99.90;;;;;;5047943;28;20098;-58
2022/01/14 03:31:42;;;;;;;44.47;18.95;;;5.90;99.90;;;;;;5044772;28;20066;-59
2022/01/14 03:34:08;;;;;;;43.97;19.88;;;5.90;99.90;;;;;;5049565;28;20127;-60
2022/01/14 03:36:34;;;;;;;41.78;19.30;;;5.90;99.90;;;;;;5049579;28;20044;-59
2022/01/14 03:39:00;;;;;;;35.22;19.73;;;5.90;99.90;;;;;;5030846;28;20040;-58
2022/01/14 03:41:26;;;;;;;38.15;20.55;;;5.90;99.90;;;;;;5048792;28;20041;-59
2022/01/14 03:43:52;;;;;;;43.95;19.98;;;5.90;99.90;;;;;;5046841;28;20787;-60
2022/01/14 03:46:17;;;;;;;42.17;21.20;;;5.90;99.90;;;;;;5049391;28;20044;-59
2022/01/14 03:48:43;;;;;;;40.85;21.00;;;5.90;99.90;;;;;;5048883;28;20488;-60
2022/01/14 03:51:09;;;;;;;45.30;20.80;;;5.90;99.90;;;;;;5046082;28;20053;-60
2022/01/14 03:53:35;;;;;;;38.45;20.05;;;5.90;99.90;;;;;;5044552;28;20053;-60
2022/01/14 03:56:01;;;;;;;43.08;20.63;;;5.90;99.90;;;;;;5050347;28;20081;-60
2022/01/14 03:58:26;;;;;;;38.35;20.17;;;5.90;99.90;;;;;;5049568;28;20444;-60
2022/01/14 04:00:52;;;;;;;48.38;20.42;;;5.90;99.90;;;;;;5046048;28;20148;-59
2022/01/14 04:03:18;;;;;;;50.83;21.60;;;5.90;99.90;;;;;;5048194;28;20733;-60
2022/01/14 04:05:44;;;;;;;44.50;21.63;;;5.90;99.90;;;;;;5045831;28;20131;-59
2022/01/14 04:08:09;;;;;;;37.28;21.23;;;6.00;99.90;;;;;;5033030;28;20063;-60
2022/01/14 04:10:36;;;;;;;41.22;20.75;;;5.90;99.90;;;;;;5047337;28;20067;-59
2022/01/14 04:13:05;;;;;;;44.33;20.60;;;6.00;99.90;;;;;;5035102;28;20059;-58
2022/01/14 04:15:36;;;;;;;41.00;20.27;;;6.00;99.90;;;;;;5028831;28;20059;-58
2022/01/14 04:18:05;;;;;;;38.70;19.98;;;6.00;99.90;;;;;;5032399;28;20052;-60
2022/01/14 04:20:31;;;;;;;40.63;19.50;;;6.10;99.90;;;;;;5031438;28;20052;-59
2022/01/14 04:22:57;;;;;;;34.70;18.55;;;6.00;99.90;;;;;;5047791;28;20095;-59
2022/01/14 04:25:23;;;;;;;36.08;17.88;;;6.00;99.90;;;;;;5045697;28;20574;-59
2022/01/14 04:27:49;;;;;;;29.17;18.13;;;5.90;99.90;;;;;;5033166;28;20055;-60
2022/01/14 04:30:15;;;;;;;37.97;18.92;;;6.00;99.90;;;;;;5045543;28;20052;-59
2022/01/14 04:32:41;;;;;;;37.92;19.23;;;5.90;99.90;;;;;;5045801;28;20105;-60
2022/01/14 04:35:08;;;;;;;37.63;20.23;;;5.90;99.90;;;;;;5018875;28;20048;-59
2022/01/14 04:37:34;;;;;;;38.70;19.65;;;5.80;99.90;;;;;;5030981;28;20052;-59
2022/01/14 04:40:00;;;;;;;38.25;19.60;;;5.80;99.90;;;;;;5044868;28;20048;-59
2022/01/14 04:42:27;;;;;;;45.75;20.77;;;5.80;99.90;;;;;;5013299;28;20063;-59
2022/01/14 04:44:55;;;;;;;42.05;20.08;;;5.70;99.90;;;;;;5047648;28;20064;-60
2022/01/14 04:47:44;;;;;;;37.20;19.85;;;5.80;99.90;;;;;;5047975;28;20071;-59
2022/01/14 04:50:17;;;;;;;44.58;20.90;;;5.70;99.90;;;;;;5037863;28;20123;-58
2022/01/14 04:52:46;;;;;;;39.20;20.80;;;5.70;99.90;;;;;;5048191;28;20098;-59
2022/01/14 04:55:14;;;;;;;42.97;20.38;;;5.70;99.90;;;;;;5032901;28;20083;-59
2022/01/14 04:57:40;;;;;;;42.33;19.90;;;5.70;99.90;;;;;;5047757;28;20080;-60
2022/01/14 05:00:13;;;;;;;40.95;19.80;;;5.70;99.90;;;;;;5035079;28;20048;-60
2022/01/14 05:02:40;;;;;;;39.72;20.63;;;5.70;99.90;;;;;;5047541;28;20533;-58
2022/01/14 05:05:07;;;;;;;36.67;19.30;;;5.70;99.90;;;;;;5043008;28;20162;-58
2022/01/14 05:07:34;;;;;;;42.67;20.00;;;5.70;99.90;;;;;;5048464;28;20044;-60
2022/01/14 05:12:38;;;;;;;34.42;19.38;;;5.70;99.90;;;;;;5034393;28;20049;-59
2022/01/14 05:15:05;;;;;;;43.38;21.33;;;5.70;99.90;;;;;;5039788;28;20627;-59
2022/01/14 05:17:31;;;;;;;39.80;20.88;;;5.60;99.90;;;;;;5035219;28;20045;-61
2022/01/14 05:19:58;;;;;;;40.03;20.75;;;5.70;99.90;;;;;;5001432;28;20138;-59
2022/01/14 05:22:25;;;;;;;42.63;21.35;;;5.70;99.90;;;;;;5049940;28;20118;-59
2022/01/14 05:24:51;;;;;;;39.80;20.02;;;5.70;99.90;;;;;;5047459;28;20052;-60
2022/01/14 05:27:17;;;;;;;37.22;20.58;;;5.70;99.90;;;;;;5023612;28;20577;-60
2022/01/14 05:29:43;;;;;;;40.03;20.88;;;5.70;99.90;;;;;;5030808;28;20044;-60
2022/01/14 05:32:13;;;;;;;36.25;20.00;;;5.70;99.90;;;;;;5032182;28;20465;-60
2022/01/14 05:34:45;;;;;;;41.65;20.25;;;5.80;99.90;;;;;;5052758;28;20482;-60
2022/01/14 05:37:12;;;;;;;37.58;19.95;;;5.70;99.90;;;;;;5050389;28;20044;-60
2022/01/14 05:39:39;;;;;;;42.45;20.70;;;5.70;99.90;;;;;;5050620;28;20045;-59
2022/01/14 05:42:05;;;;;;;49.17;21.35;;;5.70;99.90;;;;;;5033803;28;20071;-59
2022/01/14 05:44:32;;;;;;;46.72;21.77;;;5.70;99.90;;;;;;5018175;28;20076;-60
2022/01/14 05:46:59;;;;;;;38.55;21.05;;;5.70;99.90;;;;;;5033725;28;20053;-60
2022/01/14 05:49:25;;;;;;;39.55;21.63;;;5.70;99.90;;;;;;5047409;28;20079;-60
2022/01/14 05:51:52;;;;;;;44.70;21.60;;;5.70;99.90;;;;;;5048939;28;20041;-60
2022/01/14 05:54:18;;;;;;;54.80;20.80;;;5.70;99.90;;;;;;5048172;28;20037;-59
2022/01/14 05:56:45;;;;;;;40.30;21.00;;;5.70;99.90;;;;;;5032159;28;20167;-59
2022/01/14 05:59:11;;;;;;;45.65;22.70;;;5.70;99.90;;;;;;5039392;28;20584;-57
2022/01/14 06:01:38;;;;;;;41.88;21.42;;;5.70;99.90;;;;;;5048120;28;20068;-59
2022/01/14 06:04:04;;;;;;;33.55;20.00;;;5.70;99.90;;;;;;5049663;28;20050;-58
2022/01/14 06:06:31;;;;;;;40.53;21.23;;;5.70;99.90;;;;;;5051299;28;20048;-59
2022/01/14 06:08:58;;;;;;;45.63;21.15;;;5.70;99.90;;;;;;5048765;28;20048;-59
2022/01/14 06:11:24;;;;;;;44.33;20.40;;;5.70;99.90;;;;;;5044671;28;20048;-58
2022/01/14 06:13:50;;;;;;;39.25;21.35;;;5.70;99.90;;;;;;5030042;28;20049;-60
2022/01/14 06:16:16;;;;;;;44.80;21.90;;;5.80;99.90;;;;;;5048932;28;20044;-60
2022/01/14 06:18:43;;;;;;;47.42;22.38;;;5.80;99.90;;;;;;5030708;28;20045;-60
2022/01/14 06:21:09;;;;;;;42.40;20.80;;;5.70;99.90;;;;;;5047504;28;20080;-60
2022/01/14 06:23:35;;;;;;;44.72;21.17;;;5.80;99.90;;;;;;5022835;28;20054;-60
2022/01/14 06:26:01;;;;;;;49.63;21.10;;;5.80;99.90;;;;;;5018888;28;20052;-60
2022/01/14 06:28:27;;;;;;;37.80;20.98;;;5.80;99.90;;;;;;5031178;28;20044;-59
2022/01/14 06:30:53;;;;;;;41.63;21.08;;;5.80;99.90;;;;;;5048153;28;20049;-59
2022/01/14 06:33:19;;;;;;;39.92;19.98;;;5.80;99.90;;;;;;5015416;28;20153;-60
2022/01/14 06:35:45;;;;;;;40.55;20.67;;;5.80;99.90;;;;;;5049694;28;20036;-60
2022/01/14 06:38:11;;;;;;;41.78;20.17;;;5.80;99.90;;;;;;5048270;28;20068;-59
2022/01/14 06:40:38;;;;;;;40.10;18.58;;;5.80;99.90;;;;;;5050178;28;20040;-59
2022/01/14 06:43:04;;;;;;;37.65;18.33;;;5.80;99.90;;;;;;5046201;28;20109;-59
2022/01/14 06:45:31;;;;;;;35.00;16.70;;;5.80;99.90;;;;;;5044813;28;20056;-59
2022/01/14 06:47:58;;;;;;;44.13;19.17;;;5.80;99.90;;;;;;5030007;28;20139;-59
2022/01/14 06:50:24;;;;;;;38.92;17.23;;;5.80;99.90;;;;;;5047173;28;20074;-59
2022/01/14 06:52:50;;;;;;;41.33;17.30;;;5.80;99.90;;;;;;5030118;28;20047;-60
2022/01/14 06:55:17;;;;;;;36.83;16.60;;;5.90;99.90;;;;;;5047624;28;20049;-59
2022/01/14 06:57:43;;;;;;;32.70;14.93;;;5.80;99.90;;;;;;5046726;28;20041;-59
2022/01/14 07:00:13;;;;;;;30.40;15.05;;;5.80;99.90;;;;;;5031086;28;20048;-60
2022/01/14 07:02:39;;;;;;;37.78;16.15;;;5.80;99.90;;;;;;5048495;28;20048;-60
2022/01/14 07:05:06;;;;;;;33.47;15.25;;;5.80;99.90;;;;;;5048024;28;20441;-60
2022/01/14 07:07:33;;;;;;;36.97;14.52;;;5.90;99.90;;;;;;5031062;28;20488;-59
2022/01/14 07:09:59;;;;;;;38.72;14.43;;;5.90;99.90;;;;;;5048679;28;20517;-59
2022/01/14 07:12:30;;;;;;;34.33;14.75;;;5.90;99.90;;;;;;5044322;28;20045;-60
2022/01/14 07:14:57;;;;;;;31.63;12.90;;;5.90;99.90;;;;;;5038796;28;20056;-60
2022/01/14 07:17:24;;;;;;;33.92;13.23;;;5.90;99.90;;;;;;5035783;28;20044;-58
2022/01/14 07:19:52;;;;;;;31.55;12.80;;;5.90;99.90;;;;;;5033097;28;20119;-59
2022/01/14 07:22:19;;;;;;;37.05;13.05;;;5.90;99.90;;;;;;5047108;28;20060;-60
2022/01/14 07:24:45;;;;;;;34.45;12.65;;;5.90;99.90;;;;;;5053449;28;20538;-60
2022/01/14 07:27:11;;;;;;;31.83;12.50;;;5.90;99.90;;;;;;5033756;28;20059;-60
2022/01/14 07:29:38;;;;;;;35.05;12.65;;;5.90;99.90;;;;;;5048855;28;20551;-59
2022/01/14 07:32:05;;;;;;;24.45;12.43;;;5.90;99.90;;;;;;5032070;28;20059;-59
2022/01/14 07:34:31;;;;;;;31.98;12.60;;;5.90;99.90;;;;;;5014760;28;20080;-60
2022/01/14 07:36:57;;;;;;;25.23;12.45;;;6.00;99.90;;;;;;5022704;28;20140;-60
2022/01/14 07:39:23;;;;;;;30.05;11.93;;;6.00;99.90;;;;;;5031256;28;20048;-59
2022/01/14 07:41:50;;;;;;;26.05;11.80;;;6.00;99.90;;;;;;5044698;28;20045;-60
2022/01/14 07:44:16;;;;;;;32.70;12.40;;;6.00;99.90;;;;;;5049645;28;20053;-59
2022/01/14 07:46:43;;;;;;;30.90;11.93;;;6.00;99.90;;;;;;5037723;28;20043;-60
2022/01/14 07:49:10;;;;;;;30.10;12.57;;;6.00;99.90;;;;;;5049421;28;20045;-59
2022/01/14 07:51:36;;;;;;;32.85;12.43;;;6.00;99.90;;;;;;5014903;28;20046;-60
2022/01/14 07:54:05;;;;;;;31.85;11.85;;;6.00;99.90;;;;;;5029910;28;20443;-59
2022/01/14 07:56:45;;;;;;;25.08;10.82;;;6.00;99.90;;;;;;5050329;28;20033;-60
2022/01/14 07:59:14;;;;;;;31.23;11.13;;;6.00;99.90;;;;;;5046230;28;20036;-59
2022/01/14 08:01:42;;;;;;;24.65;10.68;;;6.00;99.90;;;;;;5047417;28;20045;-59
2022/01/14 08:04:08;;;;;;;35.33;11.18;;;6.00;99.90;;;;;;5047942;28;20072;-60
2022/01/14 08:06:37;;;;;;;28.98;11.20;;;6.00;99.90;;;;;;5038162;28;20507;-60
2022/01/14 08:09:04;;;;;;;27.75;10.18;;;6.00;99.90;;;;;;5028063;28;20052;-59
2022/01/14 08:11:29;;;;;;;26.70;10.02;;;6.00;99.90;;;;;;5045368;28;20481;-60
2022/01/14 08:13:56;;;;;;;31.20;10.18;;;6.00;99.90;;;;;;5046342;28;20053;-60
2022/01/14 08:16:21;;;;;;;30.08;10.13;;;6.00;99.90;;;;;;5041679;28;20051;-60
2022/01/14 08:18:47;;;;;;;26.08;9.63;;;6.00;99.90;;;;;;5047248;28;20550;-59
2022/01/14 08:21:15;;;;;;;20.90;9.23;;;6.10;99.90;;;;;;5034734;28;20040;-60
2022/01/14 08:23:41;;;;;;;25.85;9.73;;;6.10;99.90;;;;;;5052484;28;20053;-60
2022/01/14 08:26:07;;;;;;;27.35;9.80;;;6.10;99.90;;;;;;5053626;28;20511;-59
2022/01/14 08:28:33;;;;;;;21.92;9.48;;;6.10;99.90;;;;;;5051279;28;20080;-58
2022/01/14 08:30:59;;;;;;;25.15;9.57;;;6.10;99.90;;;;;;5054123;28;20056;-56
2022/01/14 08:33:25;;;;;;;31.85;10.07;;;6.10;99.90;;;;;;5035202;28;20072;-60
2022/01/14 08:35:51;;;;;;;23.60;9.27;;;6.10;99.90;;;;;;5050730;28;20048;-59
2022/01/14 08:38:17;;;;;;;27.00;9.13;;;6.10;99.90;;;;;;5050659;28;20044;-59
2022/01/14 08:40:42;;;;;;;26.70;9.35;;;6.10;99.90;;;;;;5049354;28;20550;-58
2022/01/14 08:43:08;;;;;;;25.33;9.40;;;6.20;99.90;;;;;;5048620;28;20048;-58
2022/01/14 08:45:35;;;;;;;21.08;8.65;;;6.20;99.90;;;;;;5050435;28;20091;-60
2022/01/14 08:48:01;;;;;;;21.60;8.90;;;6.20;99.90;;;;;;5017257;28;20057;-60
2022/01/14 08:50:30;;;;;;;22.08;9.10;;;6.20;99.90;;;;;;5050938;28;20067;-60
2022/01/14 08:52:59;;;;;;;29.10;9.55;;;6.20;99.90;;;;;;5035795;28;20407;-59
2022/01/14 08:55:25;;;;;;;22.33;9.00;;;6.20;99.90;;;;;;5054364;28;20048;-60
2022/01/14 08:57:52;;;;;;;27.42;9.52;;;6.30;99.90;;;;;;5038409;28;20354;-60
2022/01/14 09:00:20;;;;;;;28.50;9.20;;;6.30;99.90;;;;;;5052401;28;20136;-59
2022/01/14 09:02:46;;;;;;;21.63;9.00;;;6.30;99.90;;;;;;5049826;28;20103;-59
2022/01/14 09:05:12;;;;;;;21.42;8.07;;;6.30;99.90;;;;;;5050326;28;20056;-59
2022/01/14 09:07:38;;;;;;;25.27;8.27;;;6.40;99.90;;;;;;5048631;28;20395;-60
2022/01/14 09:10:07;;;;;;;23.42;8.52;;;6.40;99.90;;;;;;5032828;28;20056;-59
2022/01/14 09:12:34;;;;;;;20.70;8.02;;;6.40;99.90;;;;;;5029946;28;20040;-60
2022/01/14 09:15:01;;;;;;;18.70;7.53;;;6.40;99.90;;;;;;5042080;28;20112;-60
2022/01/14 09:17:28;;;;;;;21.63;7.00;;;6.40;99.90;;;;;;5048502;28;20505;-60
2022/01/14 09:19:54;;;;;;;22.30;6.25;;;6.50;99.90;;;;;;5048787;28;20049;-59
2022/01/14 09:22:20;;;;;;;18.92;6.10;;;6.50;99.90;;;;;;5016422;28;20049;-60
2022/01/14 09:24:46;;;;;;;19.77;7.22;;;6.50;99.90;;;;;;5039158;28;20122;-60
2022/01/14 09:27:13;;;;;;;18.80;6.57;;;6.60;99.90;;;;;;5052533;28;20180;-60
2022/01/14 09:29:39;;;;;;;17.92;5.95;;;6.60;99.90;;;;;;5037267;28;20053;-60
2022/01/14 09:32:06;;;;;;;20.63;7.47;;;6.60;99.90;;;;;;5049528;28;20615;-60
2022/01/14 09:34:33;;;;;;;16.65;6.53;;;6.60;99.90;;;;;;5033303;28;20048;-60
2022/01/14 09:37:00;;;;;;;20.90;6.13;;;6.70;99.90;;;;;;5034031;28;20711;-60
2022/01/14 09:39:26;;;;;;;15.30;5.90;;;6.70;99.90;;;;;;5017908;28;20534;-60
2022/01/14 09:41:51;;;;;;;27.55;5.90;;;6.70;99.90;;;;;;5044844;28;20098;-59
2022/01/14 09:44:20;;;;;;;20.30;5.75;;;6.70;99.90;;;;;;5004630;28;20090;-59
2022/01/14 09:46:53;;;;;;;22.13;5.68;;;6.70;99.90;;;;;;5033255;28;20048;-60
2022/01/14 09:49:19;;;;;;;28.92;5.78;;;6.80;99.90;;;;;;5033273;28;20873;-60
2022/01/14 09:51:46;;;;;;;20.80;6.43;;;6.80;99.90;;;;;;5030507;28;20099;-58
2022/01/14 09:54:12;;;;;;;21.05;5.35;;;6.80;99.90;;;;;;5049115;28;20049;-60
2022/01/14 09:56:39;;;;;;;18.63;4.82;;;6.80;99.90;;;;;;5048482;28;20052;-60
2022/01/14 09:59:06;;;;;;;25.67;5.15;;;6.80;99.90;;;;;;5031345;28;20047;-59
2022/01/14 10:01:43;;;;;;;19.58;5.03;;;6.80;99.90;;;;;;5030573;28;20055;-60
2022/01/14 10:04:20;;;;;;;22.15;5.75;;;6.90;99.90;;;;;;5049741;28;20522;-59
2022/01/14 10:06:57;;;;;;;21.92;5.15;;;6.90;99.90;;;;;;5035057;28;20222;-59
2022/01/14 10:09:39;;;;;;;21.67;5.00;;;6.90;99.90;;;;;;5048306;28;20476;-59
2022/01/14 10:12:07;;;;;;;15.73;4.50;;;6.90;99.90;;;;;;5047983;28;20055;-59
2022/01/14 10:14:36;;;;;;;18.67;4.68;;;6.90;99.90;;;;;;5033996;28;20761;-60
2022/01/14 10:17:04;;;;;;;16.23;4.10;;;7.00;99.90;;;;;;5048642;28;20301;-60
2022/01/14 10:19:43;;;;;;;16.80;4.43;;;7.00;99.90;;;;;;5041075;28;20049;-60
2022/01/14 10:22:25;;;;;;;20.98;4.75;;;7.00;99.90;;;;;;5039193;28;20577;-60
2022/01/14 10:25:00;;;;;;;15.80;4.22;;;7.00;99.90;;;;;;5049849;28;20123;-60
2022/01/14 10:27:37;;;;;;;21.05;4.72;;;7.00;99.90;;;;;;5009948;28;20527;-60
2022/01/14 10:30:15;;;;;;;25.15;4.32;;;7.00;99.90;;;;;;5047825;28;20049;-60
2022/01/14 10:32:43;;;;;;;18.67;4.00;;;7.00;99.90;;;;;;5031534;28;20132;-59
2022/01/14 10:35:14;;;;;;;22.42;4.07;;;7.00;99.90;;;;;;5048362;28;20063;-60
2022/01/14 10:37:40;;;;;;;19.88;4.53;;;7.10;99.90;;;;;;5047254;28;20052;-60
2022/01/14 10:40:21;;;;;;;17.90;4.30;;;7.10;99.90;;;;;;5026848;28;20061;-59
2022/01/14 10:42:50;;;;;;;16.83;4.60;;;7.10;99.90;;;;;;5028283;28;20141;-60
2022/01/14 10:45:22;;;;;;;19.90;4.38;;;7.10;99.90;;;;;;5045522;28;20647;-60
2022/01/14 10:48:00;;;;;;;17.95;4.90;;;7.10;99.90;;;;;;5046866;28;20053;-60
2022/01/14 10:50:28;;;;;;;16.85;4.72;;;7.10;99.90;;;;;;5028499;28;20048;-60
2022/01/14 10:52:54;;;;;;;18.10;4.05;;;7.10;99.90;;;;;;5026962;28;20118;-60
2022/01/14 10:55:32;;;;;;;19.17;4.70;;;7.10;99.90;;;;;;5031472;28;20048;-60
2022/01/14 10:57:58;;;;;;;20.42;5.00;;;7.20;99.90;;;;;;5048667;28;20045;-60
2022/01/14 11:00:25;;;;;;;19.23;4.65;;;7.20;99.90;;;;;;5046297;28;20479;-60
2022/01/14 11:02:53;;;;;;;22.10;5.78;;;7.20;99.90;;;;;;5027315;28;20059;-60
2022/01/14 11:05:21;;;;;;;16.75;4.70;;;7.20;99.90;;;;;;5046710;28;20048;-60
2022/01/14 11:07:49;;;;;;;19.92;5.22;;;7.30;99.90;;;;;;5045789;28;20387;-60
2022/01/14 11:10:26;;;;;;;24.52;5.30;;;7.30;99.90;;;;;;5029919;28;20060;-59
2022/01/14 11:12:54;;;;;;;21.25;5.28;;;7.30;99.90;;;;;;5044543;28;20611;-59
2022/01/14 11:15:21;;;;;;;21.83;4.55;;;7.30;99.90;;;;;;5045828;28;20115;-60
2022/01/14 11:17:51;;;;;;;20.75;4.70;;;7.30;99.90;;;;;;5035916;28;20044;-60
2022/01/14 11:20:24;;;;;;;23.48;5.63;;;7.20;99.90;;;;;;5044585;28;20044;-59
2022/01/14 11:25:38;;;;;;;22.35;5.60;;;7.30;99.90;;;;;;5035513;28;21032;-60
2022/01/14 11:28:05;;;;;;;23.38;5.75;;;7.30;99.90;;;;;;5016504;28;20151;-61
2022/01/14 11:30:36;;;;;;;21.63;5.50;;;7.30;99.90;;;;;;5045920;28;20040;-60
2022/01/14 11:33:02;;;;;;;23.60;5.65;;;7.30;99.90;;;;;;5031261;28;20450;-60
2022/01/14 11:35:30;;;;;;;26.50;6.07;;;7.40;99.90;;;;;;5028529;28;20044;-60
2022/01/14 11:37:57;;;;;;;24.77;6.40;;;7.40;99.90;;;;;;5030461;28;20126;-60
2022/01/14 11:40:23;;;;;;;21.30;5.40;;;7.40;99.90;;;;;;5030617;28;20125;-59
2022/01/14 11:42:58;;;;;;;21.58;5.97;;;7.40;99.90;;;;;;5046412;28;20044;-60
2022/01/14 11:45:39;;;;;;;23.55;5.22;;;7.40;99.90;;;;;;5047128;28;20117;-60
2022/01/14 11:48:05;;;;;;;24.13;5.68;;;7.40;99.90;;;;;;5047592;28;20047;-60
2022/01/14 11:50:30;;;;;;;25.50;5.60;;;7.40;99.90;;;;;;5039133;28;20044;-60
2022/01/14 11:52:58;;;;;;;17.92;5.72;;;7.40;99.90;;;;;;5022355;28;20057;-59
2022/01/14 11:55:34;;;;;;;33.15;6.57;;;7.40;99.90;;;;;;5036853;28;20041;-60
2022/01/14 11:58:09;;;;;;;33.03;6.28;;;7.40;99.90;;;;;;5032543;28;20053;-59
2022/01/14 12:00:39;;;;;;;26.98;5.70;;;7.40;99.90;;;;;;5048937;28;20114;-59
2022/01/14 12:03:09;;;;;;;31.35;6.35;;;7.50;99.90;;;;;;5047398;28;20507;-60
2022/01/14 12:05:53;;;;;;;27.98;6.18;;;7.50;99.90;;;;;;5047837;28;20048;-60
2022/01/14 12:08:20;;;;;;;23.30;6.57;;;7.50;99.90;;;;;;5046953;28;20468;-60
2022/01/14 12:10:47;;;;;;;23.58;6.70;;;7.30;99.90;;;;;;5029411;28;20040;-60
2022/01/14 12:18:59;;;;;;;23.92;6.18;;;7.50;99.90;;;;;;5047962;28;20447;-60
2022/01/14 12:21:43;;;;;;;27.85;6.07;;;7.50;99.90;;;;;;5030154;28;20136;-59
2022/01/14 12:24:15;;;;;;;24.60;5.97;;;7.50;99.90;;;;;;5045664;28;20056;-60
2022/01/14 12:27:04;;;;;;;24.45;5.57;;;7.50;99.90;;;;;;5032322;28;20127;-60
2022/01/14 12:29:34;;;;;;;24.75;6.28;;;7.60;99.90;;;;;;5042001;28;20049;-60
2022/01/14 12:32:12;;;;;;;27.65;5.97;;;7.50;99.90;;;;;;5023195;28;20491;-59
2022/01/14 12:34:40;;;;;;;23.15;6.10;;;7.60;99.90;;;;;;5040137;28;20045;-61
2022/01/14 12:37:09;;;;;;;25.67;5.30;;;7.60;99.90;;;;;;5018389;28;20045;-59
2022/01/14 12:39:37;;;;;;;30.55;5.85;;;7.60;99.90;;;;;;5030293;28;20063;-60
2022/01/14 12:42:03;;;;;;;24.13;6.15;;;7.60;99.90;;;;;;5027646;28;20049;-60
2022/01/14 12:44:29;;;;;;;22.83;5.82;;;7.50;99.90;;;;;;5031206;28;20101;-60
2022/01/14 12:47:09;;;;;;;32.20;6.10;;;7.50;99.90;;;;;;5046558;28;20049;-59
2022/01/14 12:49:40;;;;;;;33.97;6.25;;;7.60;99.90;;;;;;5047094;28;20081;-60
2022/01/14 12:52:09;;;;;;;26.13;5.47;;;7.60;99.90;;;;;;5042899;28;20055;-59
2022/01/14 12:54:40;;;;;;;23.65;5.40;;;7.60;99.90;;;;;;5036381;28;20094;-59
2022/01/14 12:57:06;;;;;;;21.17;5.60;;;7.60;99.90;;;;;;5031504;28;20076;-59
2022/01/14 12:59:40;;;;;;;26.65;6.05;;;7.60;99.90;;;;;;5033121;28;20052;-59
2022/01/14 13:02:06;;;;;;;32.58;6.28;;;7.70;99.90;;;;;;5013623;28;20048;-59
2022/01/14 13:04:32;;;;;;;31.15;6.40;;;7.60;99.90;;;;;;5036341;28;20052;-59
2022/01/14 13:07:02;;;;;;;34.70;5.78;;;7.60;99.90;;;;;;5040161;28;20399;-60
2022/01/14 13:09:31;;;;;;;35.35;6.38;;;7.60;99.90;;;;;;5053924;28;20045;-59
2022/01/14 13:12:01;;;;;;;31.30;6.57;;;7.60;99.90;;;;;;5034815;28;20076;-59
2022/01/14 13:14:29;;;;;;;26.67;6.43;;;7.60;99.90;;;;;;5033472;28;20045;-60
2022/01/14 13:16:56;;;;;;;37.50;6.80;;;7.60;99.90;;;;;;5051990;28;20040;-59